Alsen, South Dakota
Current Conditions -  °F | °C
As of 8:56 AM on Monday 24 Nov 2014 (Local Time) from KFSD Reporting Station
Light Snow Light Snow  
Wind Chill: -16°   Ceiling: 2100
Heat Index: -7°   Visibility: 8mi
Dew Point: -11°   Wind: 21mph
Humidity: 74%   Direction: 320°NW
Pressure: 29.64"   Gusts: 31mph
Location:  43.1048°N, 96.7944°W
Report Text: KFSD 241456Z 32018G27KT 8SM -SN BKN021 OVC026 M07/M11 A2964 RMK AO2 PK WND 32030/1419 SLP058 P0000 60000 T10721111 51026
Loading
Personal Weather Stations






























Interactive Weather Map New forecast layout! Learn more

10-Day Weather Forecast

Advertisements
Track Severe Weather on mobile